createdAt,value
2018-04-13T00:01:41.169Z,8.44
2018-04-13T00:04:09.572Z,8.41
2018-04-13T00:06:38.927Z,8.45
2018-04-13T00:09:07.302Z,8.33
2018-04-13T00:11:35.721Z,8.26
2018-04-13T00:14:04.075Z,8.21
2018-04-13T00:16:32.483Z,8.20
2018-04-13T00:19:00.982Z,8.49
2018-04-13T00:21:29.376Z,8.70
2018-04-13T00:23:58.520Z,8.78
2018-04-13T00:26:26.907Z,8.75
2018-04-13T00:28:55.290Z,8.66
2018-04-13T00:31:23.673Z,8.53
2018-04-13T00:33:52.055Z,8.33
2018-04-13T00:36:20.435Z,8.25
2018-04-13T00:38:48.925Z,8.15
2018-04-13T00:41:17.315Z,8.03
2018-04-13T00:43:45.683Z,7.95
2018-04-13T00:46:14.086Z,7.90
2018-04-13T00:48:42.454Z,7.87
2018-04-13T00:51:10.842Z,8.02
2018-04-13T00:53:39.215Z,8.05
2018-04-13T00:56:07.611Z,7.92
2018-04-13T00:58:35.974Z,7.82
2018-04-13T01:01:04.388Z,7.80
2018-04-13T01:03:32.769Z,7.78
2018-04-13T01:06:01.120Z,7.70
2018-04-13T01:08:29.681Z,7.70
2018-04-13T01:10:58.824Z,7.61
2018-04-13T01:13:27.211Z,7.53
2018-04-13T01:15:55.657Z,7.52
2018-04-13T01:18:24.837Z,7.47
2018-04-13T01:20:53.242Z,7.43
2018-04-13T01:23:22.392Z,7.40
2018-04-13T01:25:50.774Z,7.39
2018-04-13T01:28:19.205Z,7.37
2018-04-13T01:33:21.569Z,7.24
2018-04-13T01:35:49.958Z,7.17
2018-04-13T01:38:18.368Z,7.13
2018-04-13T01:40:47.523Z,7.16
2018-04-13T01:43:15.924Z,7.12
2018-04-13T01:45:44.316Z,7.15
2018-04-13T01:48:12.700Z,7.04
2018-04-13T01:50:41.104Z,7.00
2018-04-13T01:53:10.233Z,6.99
2018-04-13T01:55:38.641Z,7.04
2018-04-13T01:58:07.051Z,7.08
2018-04-13T02:00:35.433Z,7.10
2018-04-13T02:03:04.557Z,7.06
2018-04-13T02:05:32.908Z,6.98
2018-04-13T02:08:01.289Z,6.95
2018-04-13T02:10:29.696Z,7.00
2018-04-13T02:12:58.845Z,7.08
2018-04-13T02:15:27.314Z,7.29
2018-04-13T02:17:55.718Z,7.44
2018-04-13T02:20:24.103Z,7.47
2018-04-13T02:22:52.554Z,7.33
2018-04-13T02:25:21.105Z,7.34
2018-04-13T02:27:50.254Z,7.41
2018-04-13T02:30:18.627Z,7.32
2018-04-13T02:32:47.011Z,7.29
2018-04-13T02:35:15.489Z,7.21
2018-04-13T02:37:43.873Z,7.19
2018-04-13T02:40:12.261Z,7.22
2018-04-13T02:42:40.669Z,7.30
2018-04-13T02:45:09.075Z,7.07
2018-04-13T02:47:37.472Z,6.95
2018-04-13T02:50:07.022Z,6.90
2018-04-13T02:52:35.422Z,6.82
2018-04-13T02:55:03.890Z,6.72
2018-04-13T02:57:32.311Z,6.67
2018-04-13T03:00:00.699Z,6.65
2018-04-13T03:02:29.095Z,6.74
2018-04-13T03:04:57.453Z,7.06
2018-04-13T03:07:25.898Z,7.00
2018-04-13T03:09:54.292Z,7.23
2018-04-13T03:12:22.698Z,7.18
2018-04-13T03:14:51.108Z,6.93
2018-04-13T03:17:19.474Z,6.78
2018-04-13T03:19:47.849Z,6.64
2018-04-13T03:22:16.282Z,6.63
2018-04-13T03:24:45.478Z,6.59
2018-04-13T03:27:14.598Z,6.46
2018-04-13T03:29:42.998Z,6.44
2018-04-13T03:32:11.356Z,6.51
2018-04-13T03:34:39.751Z,6.57
2018-04-13T03:37:08.108Z,6.49
2018-04-13T03:39:37.325Z,6.47
2018-04-13T03:42:05.745Z,6.63
2018-04-13T03:44:34.135Z,6.72
2018-04-13T03:47:02.533Z,6.85
2018-04-13T03:49:30.893Z,6.68
2018-04-13T03:51:59.301Z,6.52
2018-04-13T03:54:27.698Z,6.46
2018-04-13T03:56:56.114Z,6.37
2018-04-13T03:59:24.492Z,6.27
2018-04-13T04:01:52.867Z,6.22
2018-04-13T04:04:22.045Z,6.20
2018-04-13T04:06:51.204Z,6.17
2018-04-13T04:09:19.573Z,6.17
2018-04-13T04:11:47.953Z,6.09
2018-04-13T04:14:16.343Z,6.07
2018-04-13T04:16:44.853Z,6.05
2018-04-13T04:19:13.253Z,6.00
2018-04-13T04:21:59.597Z,6.05
2018-04-13T04:24:45.834Z,6.44
2018-04-13T04:27:14.214Z,6.63
2018-04-13T04:29:42.605Z,6.69
2018-04-13T04:32:10.975Z,6.51
2018-04-13T04:34:39.341Z,6.44
2018-04-13T04:37:08.034Z,6.38
2018-04-13T04:39:36.460Z,6.31
2018-04-13T04:42:05.628Z,6.38
2018-04-13T04:44:34.027Z,6.49
2018-04-13T04:47:02.393Z,6.63
2018-04-13T04:49:30.764Z,6.70
2018-04-13T04:51:59.420Z,6.76
2018-04-13T04:54:27.785Z,6.88
2018-04-13T04:56:56.921Z,6.94
2018-04-13T04:59:25.305Z,6.92
2018-04-13T05:01:53.677Z,6.85
2018-04-13T05:04:22.109Z,6.86
2018-04-13T05:06:50.551Z,6.86
2018-04-13T05:09:19.710Z,6.85
2018-04-13T05:11:48.888Z,6.89
2018-04-13T05:14:17.430Z,6.92
2018-04-13T05:16:45.858Z,6.97
2018-04-13T05:19:14.269Z,7.04
2018-04-13T05:21:43.418Z,7.19
2018-04-13T05:24:11.816Z,7.28
2018-04-13T05:26:40.197Z,7.41
2018-04-13T05:29:08.601Z,7.60
2018-04-13T05:31:37.763Z,7.70
2018-04-13T05:34:06.168Z,7.78
2018-04-13T05:36:34.586Z,7.95
2018-04-13T05:39:03.742Z,8.05
2018-04-13T05:41:32.125Z,8.16
2018-04-13T05:44:00.510Z,8.26
2018-04-13T05:46:28.904Z,8.38
2018-04-13T05:48:57.291Z,8.42
2018-04-13T05:51:25.677Z,8.47
2018-04-13T05:53:54.229Z,8.55
2018-04-13T05:56:22.706Z,8.64
2018-04-13T05:58:51.103Z,8.80
2018-04-13T06:01:19.509Z,8.89
2018-04-13T06:03:47.914Z,8.97
2018-04-13T06:06:17.097Z,9.18
2018-04-13T06:08:45.469Z,9.19
2018-04-13T06:11:13.865Z,9.29
2018-04-13T06:13:42.249Z,9.33
2018-04-13T06:16:11.414Z,9.46
2018-04-13T06:18:39.809Z,9.49
2018-04-13T06:21:08.225Z,9.59
2018-04-13T06:23:37.422Z,9.64
2018-04-13T06:26:05.790Z,9.79
2018-04-13T06:28:35.710Z,9.94
2018-04-13T06:31:04.085Z,9.92
2018-04-13T06:33:32.585Z,10.15
2018-04-13T06:36:00.991Z,10.11
2018-04-13T06:38:30.186Z,10.22
2018-04-13T06:40:59.342Z,10.36
2018-04-13T06:43:27.762Z,10.69
2018-04-13T06:45:56.961Z,10.89
2018-04-13T06:48:25.389Z,11.07
2018-04-13T06:50:53.778Z,11.18
2018-04-13T06:53:22.216Z,11.29
2018-04-13T06:55:51.368Z,11.31
2018-04-13T06:58:19.799Z,11.48
2018-04-13T07:00:48.198Z,11.64
2018-04-13T07:03:17.382Z,11.72
2018-04-13T07:05:45.800Z,11.88
2018-04-13T07:08:14.208Z,12.18
2018-04-13T07:10:42.618Z,12.46
2018-04-13T07:13:11.805Z,12.69
2018-04-13T07:15:40.224Z,13.06
2018-04-13T07:18:09.379Z,13.33
2018-04-13T07:20:37.762Z,13.41
2018-04-13T07:23:06.170Z,13.11
2018-04-13T07:25:34.611Z,13.33
2018-04-13T07:28:03.097Z,13.31
2018-04-13T07:30:31.570Z,13.24
2018-04-13T07:32:59.990Z,13.09
2018-04-13T07:35:28.381Z,13.31
2018-04-13T07:38:00.313Z,13.38
2018-04-13T07:40:29.045Z,13.44
2018-04-13T07:42:57.141Z,13.48
2018-04-13T07:45:25.546Z,13.52
2018-04-13T07:47:54.778Z,13.54
2018-04-13T07:50:23.319Z,13.90
2018-04-13T07:52:52.480Z,13.99
2018-04-13T07:55:20.923Z,14.13
2018-04-13T07:57:50.094Z,14.28
2018-04-13T08:00:18.798Z,13.88
2018-04-13T08:02:48.071Z,13.85
2018-04-13T08:05:16.171Z,14.19
2018-04-13T08:07:44.701Z,14.44
2018-04-13T08:10:13.625Z,14.54
2018-04-13T08:12:42.283Z,15.19
2018-04-13T08:15:10.706Z,15.66
2018-04-13T08:17:39.098Z,16.47
2018-04-13T08:20:09.015Z,16.24
2018-04-13T08:22:38.981Z,15.88
2018-04-13T08:25:07.568Z,16.59
2018-04-13T08:27:35.982Z,16.61
2018-04-13T08:30:04.354Z,16.70
2018-04-13T08:32:32.826Z,16.14
2018-04-13T08:35:01.226Z,15.97
2018-04-13T08:37:29.614Z,16.08
2018-04-13T08:39:58.030Z,15.99
2018-04-13T08:42:26.952Z,15.71
2018-04-13T08:44:55.472Z,15.75
2018-04-13T08:47:23.851Z,15.77
2018-04-13T08:49:52.266Z,15.90
2018-04-13T08:52:20.676Z,16.00
2018-04-13T08:54:49.791Z,16.10
2018-04-13T08:57:18.180Z,16.17
2018-04-13T08:59:46.601Z,16.34
2018-04-13T09:02:15.753Z,16.41
2018-04-13T09:04:44.152Z,16.43
2018-04-13T09:07:12.547Z,16.66
2018-04-13T09:09:40.944Z,16.95
2018-04-13T09:12:09.340Z,16.67
2018-04-13T09:14:41.559Z,17.25
2018-04-13T09:17:10.710Z,16.66
2018-04-13T09:19:39.107Z,17.14
2018-04-13T09:22:07.501Z,17.31
2018-04-13T09:24:35.930Z,17.33
2018-04-13T09:27:04.328Z,17.27
2018-04-13T09:29:32.739Z,17.31
2018-04-13T09:32:01.139Z,17.21
2018-04-13T09:34:29.547Z,17.08
2018-04-13T09:36:58.709Z,17.03
2018-04-13T09:39:27.131Z,17.67
2018-04-13T09:41:55.506Z,17.91
2018-04-13T09:44:24.746Z,17.93
2018-04-13T09:46:53.867Z,17.85
2018-04-13T09:49:22.337Z,17.80
2018-04-13T09:51:50.729Z,18.13
2018-04-13T09:54:19.138Z,17.86
2018-04-13T09:56:47.637Z,18.82
2018-04-13T09:59:15.938Z,18.73
2018-04-13T10:01:44.330Z,18.34
2018-04-13T10:04:13.584Z,18.03
2018-04-13T10:06:42.013Z,17.82
2018-04-13T10:09:10.409Z,17.33
2018-04-13T10:11:38.847Z,17.03
2018-04-13T10:14:07.218Z,17.00
2018-04-13T10:16:35.619Z,16.74
2018-04-13T10:19:04.777Z,16.62
2018-04-13T10:21:33.207Z,16.62
2018-04-13T10:24:02.401Z,16.43
2018-04-13T10:26:30.803Z,16.19
2018-04-13T10:28:59.949Z,16.56
2018-04-13T10:31:28.369Z,16.55
2018-04-13T10:33:57.533Z,17.02
2018-04-13T10:36:25.917Z,16.77
2018-04-13T10:38:54.298Z,16.82
2018-04-13T10:41:22.689Z,16.90
2018-04-13T10:43:51.863Z,16.63
2018-04-13T10:46:20.244Z,16.67
2018-04-13T10:48:48.658Z,16.46
2018-04-13T10:51:17.061Z,16.54
2018-04-13T10:53:45.464Z,16.51
2018-04-13T10:56:14.614Z,16.15
2018-04-13T10:58:43.099Z,16.40
2018-04-13T11:01:11.487Z,16.38
2018-04-13T11:03:39.935Z,16.71
2018-04-13T11:06:09.102Z,16.78
2018-04-13T11:08:37.511Z,16.80
2018-04-13T11:11:05.901Z,16.99
2018-04-13T11:13:34.319Z,16.94
2018-04-13T11:16:02.706Z,17.30
2018-04-13T11:18:31.169Z,17.36
2018-04-13T11:20:59.609Z,17.41
2018-04-13T11:23:28.041Z,17.38
2018-04-13T11:25:56.453Z,17.02
2018-04-13T11:28:24.893Z,17.17
2018-04-13T11:30:53.268Z,16.95
2018-04-13T11:33:21.679Z,17.17
2018-04-13T11:35:50.073Z,17.11
2018-04-13T11:38:18.469Z,16.97
2018-04-13T11:40:46.929Z,17.05
2018-04-13T11:43:15.448Z,17.00
2018-04-13T11:45:44.607Z,17.09
2018-04-13T11:48:13.901Z,17.25
2018-04-13T11:50:42.309Z,17.54
2018-04-13T11:53:10.827Z,17.67
2018-04-13T11:55:40.730Z,17.71
2018-04-13T11:58:09.941Z,17.78
2018-04-13T12:00:38.353Z,17.85
2018-04-13T12:03:07.539Z,17.86
2018-04-13T12:05:35.914Z,17.91
2018-04-13T12:08:05.078Z,17.97
2018-04-13T12:10:33.477Z,18.10
2018-04-13T12:13:01.902Z,17.92
2018-04-13T12:15:31.061Z,18.59
2018-04-13T12:17:59.488Z,19.31
2018-04-13T12:20:28.649Z,19.23
2018-04-13T12:22:57.056Z,19.52
2018-04-13T12:25:25.518Z,19.16
2018-04-13T12:27:53.912Z,19.54
2018-04-13T12:30:22.343Z,19.27
2018-04-13T12:32:50.727Z,19.48
2018-04-13T12:35:19.132Z,19.10
2018-04-13T12:37:47.525Z,19.12
2018-04-13T12:40:16.689Z,19.04
2018-04-13T12:42:45.147Z,18.94
2018-04-13T12:45:13.552Z,18.74
2018-04-13T12:47:42.718Z,18.54
2018-04-13T12:50:11.112Z,18.32
2018-04-13T12:52:40.331Z,17.99
2018-04-13T12:55:08.975Z,17.96
2018-04-13T12:57:37.229Z,17.65
2018-04-13T13:00:05.607Z,17.69
2018-04-13T13:02:34.300Z,17.85
2018-04-13T13:05:02.684Z,18.10
2018-04-13T13:07:31.101Z,18.19
2018-04-13T13:09:59.522Z,19.09
2018-04-13T13:12:28.705Z,19.20
2018-04-13T13:14:57.117Z,19.24
2018-04-13T13:17:25.517Z,19.65
2018-04-13T13:19:53.892Z,19.82
2018-04-13T13:22:22.274Z,19.66
2018-04-13T13:24:50.678Z,19.52
2018-04-13T13:27:19.082Z,19.01
2018-04-13T13:29:47.511Z,19.17
2018-04-13T13:32:16.681Z,19.06
2018-04-13T13:34:45.218Z,18.86
2018-04-13T13:37:13.680Z,18.62
2018-04-13T13:39:42.961Z,18.14
2018-04-13T13:42:11.360Z,17.86
2018-04-13T13:44:40.514Z,18.18
2018-04-13T13:47:09.799Z,18.50
2018-04-13T13:49:38.201Z,18.69
2018-04-13T13:52:06.625Z,18.69
2018-04-13T13:54:35.023Z,18.64
2018-04-13T13:57:04.177Z,18.68
2018-04-13T13:59:33.374Z,18.84
2018-04-13T14:02:01.847Z,18.77
2018-04-13T14:04:30.236Z,18.42
2018-04-13T14:06:58.628Z,18.41
2018-04-13T14:09:27.079Z,17.79
2018-04-13T14:11:56.229Z,17.78
2018-04-13T14:14:24.630Z,17.65
2018-04-13T14:16:53.014Z,17.62
2018-04-13T14:19:21.433Z,17.78
2018-04-13T14:21:49.825Z,18.04
2018-04-13T14:24:18.282Z,18.42
2018-04-13T14:26:47.435Z,18.27
2018-04-13T14:29:15.849Z,18.72
2018-04-13T14:31:44.283Z,18.88
2018-04-13T14:34:12.677Z,18.52
2018-04-13T14:36:41.874Z,18.13
2018-04-13T14:39:11.198Z,18.40
2018-04-13T14:41:39.619Z,18.67
2018-04-13T14:44:08.784Z,18.60
2018-04-13T14:46:37.181Z,18.68
2018-04-13T14:49:05.570Z,18.26
2018-04-13T14:51:33.973Z,18.51
2018-04-13T14:54:03.312Z,18.19
2018-04-13T14:56:31.709Z,17.79
2018-04-13T14:59:00.118Z,17.62
2018-04-13T15:01:28.551Z,17.88
2018-04-13T15:03:56.915Z,18.13
2018-04-13T15:06:26.102Z,18.02
2018-04-13T15:08:55.240Z,17.79
2018-04-13T15:11:23.670Z,17.67
2018-04-13T15:13:52.086Z,17.53
2018-04-13T15:16:21.279Z,17.23
2018-04-13T15:18:50.455Z,17.05
2018-04-13T15:21:18.846Z,17.01
2018-04-13T15:23:47.241Z,17.04
2018-04-13T15:26:16.385Z,16.74
2018-04-13T15:28:44.761Z,16.51
2018-04-13T15:31:13.267Z,16.63
2018-04-13T15:33:42.449Z,16.76
2018-04-13T15:36:10.842Z,16.68
2018-04-13T15:38:39.241Z,16.62
2018-04-13T15:41:07.651Z,16.60
2018-04-13T15:43:36.840Z,16.59
2018-04-13T15:46:05.235Z,16.60
2018-04-13T15:48:33.696Z,16.56
2018-04-13T15:51:02.851Z,16.69
2018-04-13T15:53:31.260Z,16.70
2018-04-13T15:55:59.650Z,16.70
2018-04-13T15:58:28.034Z,16.67
2018-04-13T16:00:56.454Z,16.84
2018-04-13T16:03:24.886Z,16.57
2018-04-13T16:05:53.332Z,16.61
2018-04-13T16:08:22.497Z,16.36
2018-04-13T16:10:50.891Z,16.53
2018-04-13T16:13:19.280Z,16.28
2018-04-13T16:15:47.654Z,16.21
2018-04-13T16:18:16.877Z,16.08
2018-04-13T16:20:45.276Z,16.08
2018-04-13T16:23:14.475Z,16.03
2018-04-13T16:25:43.646Z,16.11
2018-04-13T16:28:12.059Z,16.12
2018-04-13T16:30:41.234Z,16.17
2018-04-13T16:33:09.667Z,16.10
2018-04-13T16:35:38.114Z,15.93
2018-04-13T16:38:06.515Z,15.90
2018-04-13T16:40:35.706Z,15.88
2018-04-13T16:43:04.883Z,16.00
2018-04-13T16:45:33.278Z,16.00
2018-04-13T16:48:01.744Z,15.76
2018-04-13T16:50:30.199Z,15.94
2018-04-13T16:52:58.585Z,15.82
2018-04-13T16:55:27.044Z,16.09
2018-04-13T16:57:56.229Z,16.20
2018-04-13T17:00:25.437Z,16.06
2018-04-13T17:02:54.603Z,16.02
2018-04-13T17:05:23.015Z,15.96
2018-04-13T17:07:52.186Z,15.97
2018-04-13T17:10:21.372Z,15.74
2018-04-13T17:12:49.801Z,15.63
2018-04-13T17:15:18.942Z,15.62
2018-04-13T17:17:47.346Z,15.49
2018-04-13T17:20:15.786Z,15.57
2018-04-13T17:22:44.947Z,15.52
2018-04-13T17:25:13.339Z,15.86
2018-04-13T17:27:41.744Z,15.69
2018-04-13T17:30:10.890Z,15.34
2018-04-13T17:32:39.309Z,15.41
2018-04-13T17:35:08.397Z,15.25
2018-04-13T17:37:36.786Z,15.20
2018-04-13T17:40:05.247Z,15.10
2018-04-13T17:42:33.714Z,15.08
2018-04-13T17:45:02.131Z,15.02
2018-04-13T17:47:30.571Z,15.17
2018-04-13T17:49:58.990Z,15.08
2018-04-13T17:52:28.343Z,15.07
2018-04-13T17:54:57.498Z,15.00
2018-04-13T17:57:25.913Z,14.90
2018-04-13T17:59:54.306Z,14.81
2018-04-13T18:02:23.462Z,14.84
2018-04-13T18:04:51.854Z,14.77
2018-04-13T18:07:20.273Z,14.65
2018-04-13T18:09:49.445Z,14.54
2018-04-13T18:12:17.862Z,14.49
2018-04-13T18:14:47.042Z,14.54
2018-04-13T18:17:15.505Z,14.48
2018-04-13T18:19:43.963Z,14.44
2018-04-13T18:22:12.390Z,14.36
2018-04-13T18:24:40.823Z,14.29
2018-04-13T18:27:09.231Z,14.28
2018-04-13T18:29:37.651Z,14.19
2018-04-13T18:32:06.084Z,14.17
2018-04-13T18:34:34.498Z,14.20
2018-04-13T18:37:03.196Z,14.13
2018-04-13T18:39:31.612Z,14.04
2018-04-13T18:42:00.115Z,13.96
2018-04-13T18:44:28.554Z,13.93
2018-04-13T18:46:57.053Z,13.97
2018-04-13T18:49:26.254Z,14.00
2018-04-13T18:51:54.714Z,14.05
2018-04-13T18:54:23.136Z,14.08
2018-04-13T18:56:52.343Z,14.12
2018-04-13T18:59:20.810Z,14.20
2018-04-13T19:01:49.243Z,14.31
2018-04-13T19:04:17.676Z,14.30
2018-04-13T19:06:46.107Z,14.33
2018-04-13T19:09:14.513Z,14.28
2018-04-13T19:11:42.931Z,14.33
2018-04-13T19:14:12.146Z,14.37
2018-04-13T19:16:41.346Z,14.38
2018-04-13T19:19:10.516Z,14.35
2018-04-13T19:21:38.982Z,14.35
2018-04-13T19:24:07.378Z,14.36
2018-04-13T19:26:35.810Z,14.42
2018-04-13T19:29:04.214Z,14.49
2018-04-13T19:31:32.681Z,14.55
2018-04-13T19:34:01.079Z,14.60
2018-04-13T19:36:29.489Z,14.63
2018-04-13T19:38:57.922Z,14.54
2018-04-13T19:41:26.339Z,14.48
2018-04-13T19:43:54.774Z,14.42
2018-04-13T19:46:23.206Z,14.37
2018-04-13T19:48:51.778Z,14.33
2018-04-13T19:51:20.167Z,14.39
2018-04-13T19:53:48.750Z,14.41
2018-04-13T19:56:17.339Z,14.46
2018-04-13T19:58:45.943Z,14.48
2018-04-13T20:01:14.335Z,14.46
2018-04-13T20:03:42.886Z,14.53
2018-04-13T20:06:11.343Z,14.48
2018-04-13T20:08:39.782Z,14.42
2018-04-13T20:11:08.187Z,14.47
2018-04-13T20:13:36.553Z,14.45
2018-04-13T20:16:04.940Z,14.45
2018-04-13T20:18:34.094Z,14.42
2018-04-13T20:21:03.282Z,14.42
2018-04-13T20:23:32.438Z,14.41
2018-04-13T20:26:00.861Z,14.36
2018-04-13T20:28:29.274Z,14.27
2018-04-13T20:30:57.682Z,14.14
2018-04-13T20:33:26.100Z,14.08
2018-04-13T20:35:54.515Z,14.04
2018-04-13T20:38:23.709Z,14.00
2018-04-13T20:40:52.876Z,13.92
2018-04-13T20:43:21.289Z,13.88
2018-04-13T20:45:50.482Z,13.83
2018-04-13T20:48:18.879Z,13.82
2018-04-13T20:50:48.055Z,13.86
2018-04-13T20:53:16.452Z,13.86
2018-04-13T20:55:44.901Z,13.87
2018-04-13T20:58:13.304Z,13.86
2018-04-13T21:00:41.746Z,13.84
2018-04-13T21:03:10.200Z,13.78
2018-04-13T21:05:39.812Z,13.74
2018-04-13T21:08:08.978Z,13.68
2018-04-13T21:10:37.545Z,13.60
2018-04-13T21:13:06.799Z,13.56
2018-04-13T21:15:35.243Z,13.58
2018-04-13T21:18:03.778Z,13.57
2018-04-13T21:20:32.271Z,13.56
2018-04-13T21:23:00.730Z,13.51
2018-04-13T21:25:29.156Z,13.45
2018-04-13T21:27:57.560Z,13.43
2018-04-13T21:30:25.965Z,13.39
2018-04-13T21:32:54.406Z,13.36
2018-04-13T21:35:22.785Z,13.32
2018-04-13T21:37:51.215Z,13.26
2018-04-13T21:40:19.696Z,13.25
2018-04-13T21:42:48.131Z,13.25
2018-04-13T21:45:16.521Z,13.22
2018-04-13T21:47:44.971Z,13.17
2018-04-13T21:50:13.421Z,13.11
2018-04-13T21:52:41.876Z,13.05
2018-04-13T21:55:10.362Z,13.01
2018-04-13T21:57:38.810Z,13.09
2018-04-13T22:00:07.295Z,13.07
2018-04-13T22:02:36.461Z,13.08
2018-04-13T22:05:04.879Z,13.09
2018-04-13T22:07:34.094Z,13.39
2018-04-13T22:10:03.290Z,13.26
2018-04-13T22:12:50.182Z,13.28
2018-04-13T22:15:24.297Z,13.20
2018-04-13T22:17:52.702Z,13.21
2018-04-13T22:20:21.136Z,13.19
2018-04-13T22:22:49.531Z,13.09
2018-04-13T22:25:17.937Z,13.03
2018-04-13T22:27:47.214Z,12.99
2018-04-13T22:30:15.619Z,12.93
2018-04-13T22:32:44.850Z,12.96
2018-04-13T22:35:13.255Z,13.10
2018-04-13T22:37:41.706Z,13.10
2018-04-13T22:40:10.902Z,13.21
2018-04-13T22:42:39.348Z,13.47
2018-04-13T22:45:07.823Z,13.51
2018-04-13T22:47:37.102Z,13.45
2018-04-13T22:50:05.495Z,13.51
2018-04-13T22:52:33.870Z,13.68
2018-04-13T22:55:02.253Z,13.78
2018-04-13T22:57:30.658Z,13.77
2018-04-13T22:59:59.184Z,13.69
2018-04-13T23:02:28.390Z,13.69
2018-04-13T23:04:57.630Z,13.47
2018-04-13T23:07:26.033Z,13.47
2018-04-13T23:09:55.225Z,13.40
2018-04-13T23:12:23.673Z,13.23
2018-04-13T23:14:52.896Z,13.30
2018-04-13T23:17:21.298Z,13.35
2018-04-13T23:19:49.717Z,13.35
2018-04-13T23:22:37.641Z,13.31
2018-04-13T23:25:06.084Z,13.29
2018-04-13T23:27:34.512Z,13.22
2018-04-13T23:30:02.926Z,13.17
2018-04-13T23:32:31.326Z,13.28
2018-04-13T23:34:59.742Z,13.21
2018-04-13T23:37:28.141Z,13.17
2018-04-13T23:39:56.733Z,13.18
2018-04-13T23:42:25.129Z,13.17
2018-04-13T23:44:54.319Z,13.08
2018-04-13T23:47:22.747Z,13.01
2018-04-13T23:49:51.147Z,13.17
2018-04-13T23:52:19.561Z,13.14
2018-04-13T23:54:47.977Z,12.91
2018-04-13T23:57:17.153Z,12.70
2018-04-13T23:59:45.536Z,12.65
